sensor_id;sensor_type;location;lat;lon;timestamp;temperature;humidity
53294;DHT22;39181;53.440;5.644;2022-09-09T00:04:13;14.90;99.90
53294;DHT22;39181;53.440;5.644;2022-09-09T00:06:46;14.90;99.90
53294;DHT22;39181;53.440;5.644;2022-09-09T00:09:19;14.80;99.90
53294;DHT22;39181;53.440;5.644;2022-09-09T00:11:51;14.80;99.90
53294;DHT22;39181;53.440;5.644;2022-09-09T00:17:09;14.80;99.90
53294;DHT22;39181;53.440;5.644;2022-09-09T00:22:23;14.80;99.90
53294;DHT22;39181;53.440;5.644;2022-09-09T00:24:54;14.80;99.90
53294;DHT22;39181;53.440;5.644;2022-09-09T00:27:25;14.70;99.90
53294;DHT22;39181;53.440;5.644;2022-09-09T00:30:19;14.80;99.90
53294;DHT22;39181;53.440;5.644;2022-09-09T00:33:11;14.70;99.90
53294;DHT22;39181;53.440;5.644;2022-09-09T00:35:43;14.80;99.90
53294;DHT22;39181;53.440;5.644;2022-09-09T00:38:23;14.70;99.90
53294;DHT22;39181;53.440;5.644;2022-09-09T00:40:59;14.70;99.90
53294;DHT22;39181;53.440;5.644;2022-09-09T00:43:29;14.70;99.90
53294;DHT22;39181;53.440;5.644;2022-09-09T00:46:14;14.70;99.90
53294;DHT22;39181;53.440;5.644;2022-09-09T00:49:02;14.70;99.90
53294;DHT22;39181;53.440;5.644;2022-09-09T00:51:55;14.70;99.90
53294;DHT22;39181;53.440;5.644;2022-09-09T00:57:30;14.60;99.90
53294;DHT22;39181;53.440;5.644;2022-09-09T01:02:39;14.60;99.90
53294;DHT22;39181;53.440;5.644;2022-09-09T01:05:25;14.60;99.90
53294;DHT22;39181;53.440;5.644;2022-09-09T01:07:52;14.60;99.90
53294;DHT22;39181;53.440;5.644;2022-09-09T01:13:29;14.70;99.90
53294;DHT22;39181;53.440;5.644;2022-09-09T01:16:00;14.70;99.90
53294;DHT22;39181;53.440;5.644;2022-09-09T01:18:46;14.70;99.90
53294;DHT22;39181;53.440;5.644;2022-09-09T01:21:43;14.70;99.90
53294;DHT22;39181;53.440;5.644;2022-09-09T01:24:30;14.70;99.90
53294;DHT22;39181;53.440;5.644;2022-09-09T01:27:01;14.70;99.90
53294;DHT22;39181;53.440;5.644;2022-09-09T01:29:27;14.70;99.90
53294;DHT22;39181;53.440;5.644;2022-09-09T01:34:27;14.70;99.90
53294;DHT22;39181;53.440;5.644;2022-09-09T01:36:58;14.70;99.90
53294;DHT22;39181;53.440;5.644;2022-09-09T01:39:25;14.70;99.90
53294;DHT22;39181;53.440;5.644;2022-09-09T01:41:52;14.70;99.90
53294;DHT22;39181;53.440;5.644;2022-09-09T01:44:20;14.70;99.90
53294;DHT22;39181;53.440;5.644;2022-09-09T01:46:46;14.70;99.90
53294;DHT22;39181;53.440;5.644;2022-09-09T01:52:57;14.70;99.90
53294;DHT22;39181;53.440;5.644;2022-09-09T01:55:47;14.70;99.90
53294;DHT22;39181;53.440;5.644;2022-09-09T02:01:00;14.70;99.90
53294;DHT22;39181;53.440;5.644;2022-09-09T02:03:28;14.60;99.90
53294;DHT22;39181;53.440;5.644;2022-09-09T02:06:00;14.70;99.90
53294;DHT22;39181;53.440;5.644;2022-09-09T02:08:48;14.60;99.90
53294;DHT22;39181;53.440;5.644;2022-09-09T02:11:17;14.60;99.90
53294;DHT22;39181;53.440;5.644;2022-09-09T02:14:03;14.60;99.90
53294;DHT22;39181;53.440;5.644;2022-09-09T02:16:50;14.60;99.90
53294;DHT22;39181;53.440;5.644;2022-09-09T02:19:22;14.60;99.90
53294;DHT22;39181;53.440;5.644;2022-09-09T02:21:53;14.60;99.90
53294;DHT22;39181;53.440;5.644;2022-09-09T02:24:21;14.60;99.90
53294;DHT22;39181;53.440;5.644;2022-09-09T02:26:50;14.60;99.90
53294;DHT22;39181;53.440;5.644;2022-09-09T02:29:42;14.60;99.90
53294;DHT22;39181;53.440;5.644;2022-09-09T02:32:12;14.60;99.90
53294;DHT22;39181;53.440;5.644;2022-09-09T02:34:43;14.60;99.90
53294;DHT22;39181;53.440;5.644;2022-09-09T02:37:11;14.60;99.90
53294;DHT22;39181;53.440;5.644;2022-09-09T02:39:38;14.70;99.90
53294;DHT22;39181;53.440;5.644;2022-09-09T02:42:04;14.60;99.90
53294;DHT22;39181;53.440;5.644;2022-09-09T02:44:30;14.60;99.90
53294;DHT22;39181;53.440;5.644;2022-09-09T02:49:45;14.60;99.90
53294;DHT22;39181;53.440;5.644;2022-09-09T02:52:14;14.70;99.90
53294;DHT22;39181;53.440;5.644;2022-09-09T02:54:42;14.70;99.90
53294;DHT22;39181;53.440;5.644;2022-09-09T02:57:24;14.70;99.90
53294;DHT22;39181;53.440;5.644;2022-09-09T02:59:51;14.70;99.90
53294;DHT22;39181;53.440;5.644;2022-09-09T03:02:20;14.70;99.90
53294;DHT22;39181;53.440;5.644;2022-09-09T03:04:46;14.80;99.90
53294;DHT22;39181;53.440;5.644;2022-09-09T03:07:16;14.80;99.90
53294;DHT22;39181;53.440;5.644;2022-09-09T03:09:42;14.80;99.90
53294;DHT22;39181;53.440;5.644;2022-09-09T03:12:08;14.80;99.90
53294;DHT22;39181;53.440;5.644;2022-09-09T03:14:33;14.70;99.90
53294;DHT22;39181;53.440;5.644;2022-09-09T03:16:59;14.80;99.90
53294;DHT22;39181;53.440;5.644;2022-09-09T03:19:26;14.80;99.90
53294;DHT22;39181;53.440;5.644;2022-09-09T03:21:53;14.80;99.90
53294;DHT22;39181;53.440;5.644;2022-09-09T03:24:19;14.80;99.90
53294;DHT22;39181;53.440;5.644;2022-09-09T03:26:44;14.90;99.90
53294;DHT22;39181;53.440;5.644;2022-09-09T03:29:11;14.90;99.90
53294;DHT22;39181;53.440;5.644;2022-09-09T03:31:38;14.90;99.90
53294;DHT22;39181;53.440;5.644;2022-09-09T03:34:04;14.90;99.90
53294;DHT22;39181;53.440;5.644;2022-09-09T03:36:31;14.90;99.90
53294;DHT22;39181;53.440;5.644;2022-09-09T03:38:56;14.90;99.90
53294;DHT22;39181;53.440;5.644;2022-09-09T03:41:23;14.90;99.90
53294;DHT22;39181;53.440;5.644;2022-09-09T03:43:52;14.90;99.90
53294;DHT22;39181;53.440;5.644;2022-09-09T03:46:22;15.00;99.90
53294;DHT22;39181;53.440;5.644;2022-09-09T03:48:48;15.00;99.90
53294;DHT22;39181;53.440;5.644;2022-09-09T03:51:14;15.10;99.90
53294;DHT22;39181;53.440;5.644;2022-09-09T03:53:41;15.10;99.90
53294;DHT22;39181;53.440;5.644;2022-09-09T03:56:07;15.20;99.90
53294;DHT22;39181;53.440;5.644;2022-09-09T03:58:33;15.20;99.90
53294;DHT22;39181;53.440;5.644;2022-09-09T04:03:26;15.30;99.90
53294;DHT22;39181;53.440;5.644;2022-09-09T04:05:53;15.20;99.90
53294;DHT22;39181;53.440;5.644;2022-09-09T04:08:20;15.20;99.90
53294;DHT22;39181;53.440;5.644;2022-09-09T04:10:47;15.10;99.90
53294;DHT22;39181;53.440;5.644;2022-09-09T04:13:14;15.00;99.90
53294;DHT22;39181;53.440;5.644;2022-09-09T04:15:40;15.00;99.90
53294;DHT22;39181;53.440;5.644;2022-09-09T04:18:06;15.00;99.90
53294;DHT22;39181;53.440;5.644;2022-09-09T04:20:32;15.00;99.90
53294;DHT22;39181;53.440;5.644;2022-09-09T04:22:58;15.00;99.90
53294;DHT22;39181;53.440;5.644;2022-09-09T04:25:24;15.00;99.90
53294;DHT22;39181;53.440;5.644;2022-09-09T04:27:58;15.00;99.90
53294;DHT22;39181;53.440;5.644;2022-09-09T04:30:24;15.00;99.90
53294;DHT22;39181;53.440;5.644;2022-09-09T04:32:50;14.90;99.90
53294;DHT22;39181;53.440;5.644;2022-09-09T04:35:16;14.90;99.90
53294;DHT22;39181;53.440;5.644;2022-09-09T04:37:41;14.90;99.90
53294;DHT22;39181;53.440;5.644;2022-09-09T04:40:08;14.80;99.90
53294;DHT22;39181;53.440;5.644;2022-09-09T04:42:38;14.80;99.90
53294;DHT22;39181;53.440;5.644;2022-09-09T04:45:05;14.80;99.90
53294;DHT22;39181;53.440;5.644;2022-09-09T04:47:32;14.80;99.90
53294;DHT22;39181;53.440;5.644;2022-09-09T04:49:57;14.80;99.90
53294;DHT22;39181;53.440;5.644;2022-09-09T04:52:23;14.80;99.90
53294;DHT22;39181;53.440;5.644;2022-09-09T04:54:49;14.80;99.90
53294;DHT22;39181;53.440;5.644;2022-09-09T04:57:14;14.90;99.90
53294;DHT22;39181;53.440;5.644;2022-09-09T04:59:40;14.90;99.90
53294;DHT22;39181;53.440;5.644;2022-09-09T05:02:06;14.90;99.90
53294;DHT22;39181;53.440;5.644;2022-09-09T05:04:31;14.90;99.90
53294;DHT22;39181;53.440;5.644;2022-09-09T05:06:58;14.90;99.90
53294;DHT22;39181;53.440;5.644;2022-09-09T05:09:24;14.90;99.90
53294;DHT22;39181;53.440;5.644;2022-09-09T05:11:50;14.90;99.90
53294;DHT22;39181;53.440;5.644;2022-09-09T05:14:15;14.90;99.90
53294;DHT22;39181;53.440;5.644;2022-09-09T05:16:41;14.90;99.90
53294;DHT22;39181;53.440;5.644;2022-09-09T05:19:09;14.90;99.90
53294;DHT22;39181;53.440;5.644;2022-09-09T05:21:35;14.90;99.90
53294;DHT22;39181;53.440;5.644;2022-09-09T05:24:01;14.80;99.90
53294;DHT22;39181;53.440;5.644;2022-09-09T05:26:27;14.90;99.90
53294;DHT22;39181;53.440;5.644;2022-09-09T05:28:54;14.90;99.90
53294;DHT22;39181;53.440;5.644;2022-09-09T05:31:20;14.90;99.90
53294;DHT22;39181;53.440;5.644;2022-09-09T05:33:47;14.90;99.90
53294;DHT22;39181;53.440;5.644;2022-09-09T05:36:17;15.00;99.90
53294;DHT22;39181;53.440;5.644;2022-09-09T05:38:44;14.90;99.90
53294;DHT22;39181;53.440;5.644;2022-09-09T05:41:11;15.00;99.90
53294;DHT22;39181;53.440;5.644;2022-09-09T05:43:38;15.00;99.90
53294;DHT22;39181;53.440;5.644;2022-09-09T05:46:21;15.00;99.90
53294;DHT22;39181;53.440;5.644;2022-09-09T05:48:48;15.10;99.90
53294;DHT22;39181;53.440;5.644;2022-09-09T05:51:18;15.10;99.90
53294;DHT22;39181;53.440;5.644;2022-09-09T05:53:44;15.10;99.90
53294;DHT22;39181;53.440;5.644;2022-09-09T05:56:15;15.20;99.90
53294;DHT22;39181;53.440;5.644;2022-09-09T05:58:42;15.30;99.90
53294;DHT22;39181;53.440;5.644;2022-09-09T06:01:23;15.30;99.90
53294;DHT22;39181;53.440;5.644;2022-09-09T06:03:50;15.30;99.90
53294;DHT22;39181;53.440;5.644;2022-09-09T06:06:30;15.40;99.90
53294;DHT22;39181;53.440;5.644;2022-09-09T06:08:56;15.40;99.90
53294;DHT22;39181;53.440;5.644;2022-09-09T06:11:29;15.40;99.90
53294;DHT22;39181;53.440;5.644;2022-09-09T06:13:57;15.40;99.90
53294;DHT22;39181;53.440;5.644;2022-09-09T06:16:24;15.50;99.90
53294;DHT22;39181;53.440;5.644;2022-09-09T06:18:51;15.50;99.90
53294;DHT22;39181;53.440;5.644;2022-09-09T06:21:36;15.50;99.90
53294;DHT22;39181;53.440;5.644;2022-09-09T06:24:03;15.60;99.90
53294;DHT22;39181;53.440;5.644;2022-09-09T06:26:34;15.60;99.90
53294;DHT22;39181;53.440;5.644;2022-09-09T06:29:00;15.60;99.90
53294;DHT22;39181;53.440;5.644;2022-09-09T06:31:28;15.60;99.90
53294;DHT22;39181;53.440;5.644;2022-09-09T06:33:59;15.70;99.90
53294;DHT22;39181;53.440;5.644;2022-09-09T06:36:30;15.70;99.90
53294;DHT22;39181;53.440;5.644;2022-09-09T06:38:56;15.70;99.90
53294;DHT22;39181;53.440;5.644;2022-09-09T06:41:24;15.80;99.90
53294;DHT22;39181;53.440;5.644;2022-09-09T06:43:51;15.80;99.90
53294;DHT22;39181;53.440;5.644;2022-09-09T06:46:22;15.80;99.90
53294;DHT22;39181;53.440;5.644;2022-09-09T06:48:49;15.80;99.90
53294;DHT22;39181;53.440;5.644;2022-09-09T06:51:20;15.90;99.90
53294;DHT22;39181;53.440;5.644;2022-09-09T06:53:47;15.80;99.90
53294;DHT22;39181;53.440;5.644;2022-09-09T06:56:30;15.90;99.90
53294;DHT22;39181;53.440;5.644;2022-09-09T06:59:01;16.00;99.90
53294;DHT22;39181;53.440;5.644;2022-09-09T07:01:34;16.00;99.90
53294;DHT22;39181;53.440;5.644;2022-09-09T07:04:01;16.00;99.90
53294;DHT22;39181;53.440;5.644;2022-09-09T07:06:30;15.90;99.90
53294;DHT22;39181;53.440;5.644;2022-09-09T07:09:01;15.90;99.90
53294;DHT22;39181;53.440;5.644;2022-09-09T07:11:36;15.90;99.90
53294;DHT22;39181;53.440;5.644;2022-09-09T07:14:02;15.80;99.90
53294;DHT22;39181;53.440;5.644;2022-09-09T07:16:28;15.90;99.90
53294;DHT22;39181;53.440;5.644;2022-09-09T07:18:54;15.90;99.90
53294;DHT22;39181;53.440;5.644;2022-09-09T07:21:24;15.90;99.90
53294;DHT22;39181;53.440;5.644;2022-09-09T07:23:51;16.00;99.90
53294;DHT22;39181;53.440;5.644;2022-09-09T07:26:19;16.00;99.90
53294;DHT22;39181;53.440;5.644;2022-09-09T07:28:46;16.00;99.90
53294;DHT22;39181;53.440;5.644;2022-09-09T07:31:22;16.10;99.90
53294;DHT22;39181;53.440;5.644;2022-09-09T07:33:49;16.10;99.90
53294;DHT22;39181;53.440;5.644;2022-09-09T07:36:19;16.10;99.90
53294;DHT22;39181;53.440;5.644;2022-09-09T07:38:50;16.10;99.90
53294;DHT22;39181;53.440;5.644;2022-09-09T07:41:22;16.20;99.90
53294;DHT22;39181;53.440;5.644;2022-09-09T07:43:49;16.20;99.90
53294;DHT22;39181;53.440;5.644;2022-09-09T07:46:17;16.30;99.90
53294;DHT22;39181;53.440;5.644;2022-09-09T07:48:47;16.40;99.90
53294;DHT22;39181;53.440;5.644;2022-09-09T07:51:18;16.50;99.90
53294;DHT22;39181;53.440;5.644;2022-09-09T07:53:45;16.60;99.90
53294;DHT22;39181;53.440;5.644;2022-09-09T07:56:15;16.80;99.90
53294;DHT22;39181;53.440;5.644;2022-09-09T07:58:44;16.80;99.90
53294;DHT22;39181;53.440;5.644;2022-09-09T08:01:12;16.80;99.90
53294;DHT22;39181;53.440;5.644;2022-09-09T08:03:39;16.90;99.90
53294;DHT22;39181;53.440;5.644;2022-09-09T08:06:06;16.90;99.90
53294;DHT22;39181;53.440;5.644;2022-09-09T08:08:34;17.00;99.90
53294;DHT22;39181;53.440;5.644;2022-09-09T08:11:08;17.10;99.90
53294;DHT22;39181;53.440;5.644;2022-09-09T08:13:38;17.20;99.90
53294;DHT22;39181;53.440;5.644;2022-09-09T08:16:14;17.30;99.90
53294;DHT22;39181;53.440;5.644;2022-09-09T08:18:40;17.40;99.90
53294;DHT22;39181;53.440;5.644;2022-09-09T08:21:13;17.60;99.90
53294;DHT22;39181;53.440;5.644;2022-09-09T08:23:40;17.60;99.90
53294;DHT22;39181;53.440;5.644;2022-09-09T08:26:15;17.70;99.90
53294;DHT22;39181;53.440;5.644;2022-09-09T08:28:41;17.70;99.90
53294;DHT22;39181;53.440;5.644;2022-09-09T08:31:15;17.80;99.90
53294;DHT22;39181;53.440;5.644;2022-09-09T08:33:43;17.90;99.90
53294;DHT22;39181;53.440;5.644;2022-09-09T08:36:13;18.10;99.90
53294;DHT22;39181;53.440;5.644;2022-09-09T08:38:41;18.20;99.90
53294;DHT22;39181;53.440;5.644;2022-09-09T08:41:30;18.30;99.90
53294;DHT22;39181;53.440;5.644;2022-09-09T08:50:18;18.10;99.90
53294;DHT22;39181;53.440;5.644;2022-09-09T08:52:59;18.20;99.90
53294;DHT22;39181;53.440;5.644;2022-09-09T08:55:48;18.20;99.90
53294;DHT22;39181;53.440;5.644;2022-09-09T08:58:51;18.30;99.90
53294;DHT22;39181;53.440;5.644;2022-09-09T09:07:13;18.80;99.90
53294;DHT22;39181;53.440;5.644;2022-09-09T09:12:46;18.90;99.90
53294;DHT22;39181;53.440;5.644;2022-09-09T09:15:25;19.00;99.90
53294;DHT22;39181;53.440;5.644;2022-09-09T09:17:52;19.10;99.90
53294;DHT22;39181;53.440;5.644;2022-09-09T09:20:27;19.30;99.90
53294;DHT22;39181;53.440;5.644;2022-09-09T09:23:00;19.40;99.90
53294;DHT22;39181;53.440;5.644;2022-09-09T09:25:37;19.50;99.90
53294;DHT22;39181;53.440;5.644;2022-09-09T09:28:23;19.50;99.90
53294;DHT22;39181;53.440;5.644;2022-09-09T09:31:08;19.40;99.90
53294;DHT22;39181;53.440;5.644;2022-09-09T09:33:47;19.40;99.90
53294;DHT22;39181;53.440;5.644;2022-09-09T09:36:15;19.40;99.90
53294;DHT22;39181;53.440;5.644;2022-09-09T09:38:56;19.30;99.90
53294;DHT22;39181;53.440;5.644;2022-09-09T09:41:34;19.30;99.90
53294;DHT22;39181;53.440;5.644;2022-09-09T09:44:01;19.20;99.90
53294;DHT22;39181;53.440;5.644;2022-09-09T09:46:27;19.10;99.90
53294;DHT22;39181;53.440;5.644;2022-09-09T09:49:09;19.00;99.90
53294;DHT22;39181;53.440;5.644;2022-09-09T09:51:35;18.90;99.90
53294;DHT22;39181;53.440;5.644;2022-09-09T09:56:39;18.70;99.90
53294;DHT22;39181;53.440;5.644;2022-09-09T10:01:53;18.70;99.90
53294;DHT22;39181;53.440;5.644;2022-09-09T10:04:22;18.70;99.90
53294;DHT22;39181;53.440;5.644;2022-09-09T10:06:49;18.80;99.90
53294;DHT22;39181;53.440;5.644;2022-09-09T10:09:29;18.90;99.90
53294;DHT22;39181;53.440;5.644;2022-09-09T10:17:41;19.40;99.90
53294;DHT22;39181;53.440;5.644;2022-09-09T10:21:17;19.80;99.90
53294;DHT22;39181;53.440;5.644;2022-09-09T10:29:40;20.80;99.90
53294;DHT22;39181;53.440;5.644;2022-09-09T10:32:34;21.00;99.90
53294;DHT22;39181;53.440;5.644;2022-09-09T10:38:03;21.10;99.90
53294;DHT22;39181;53.440;5.644;2022-09-09T10:46:14;20.90;99.90
53294;DHT22;39181;53.440;5.644;2022-09-09T10:57:13;21.40;99.90
53294;DHT22;39181;53.440;5.644;2022-09-09T10:59:45;21.70;99.90
53294;DHT22;39181;53.440;5.644;2022-09-09T11:02:29;21.90;99.90
53294;DHT22;39181;53.440;5.644;2022-09-09T11:05:14;22.20;99.90
53294;DHT22;39181;53.440;5.644;2022-09-09T11:07:58;22.30;99.90
53294;DHT22;39181;53.440;5.644;2022-09-09T11:18:58;22.60;99.90
53294;DHT22;39181;53.440;5.644;2022-09-09T11:21:29;22.70;99.90
53294;DHT22;39181;53.440;5.644;2022-09-09T11:24:04;22.80;99.90
53294;DHT22;39181;53.440;5.644;2022-09-09T11:32:12;22.70;99.90
53294;DHT22;39181;53.440;5.644;2022-09-09T11:37:33;22.70;99.90
53294;DHT22;39181;53.440;5.644;2022-09-09T11:40:17;22.70;99.90
53294;DHT22;39181;53.440;5.644;2022-09-09T11:42:45;22.80;99.90
53294;DHT22;39181;53.440;5.644;2022-09-09T11:45:26;22.60;99.90
53294;DHT22;39181;53.440;5.644;2022-09-09T11:47:58;22.60;99.90
53294;DHT22;39181;53.440;5.644;2022-09-09T11:52:50;22.20;99.90
53294;DHT22;39181;53.440;5.644;2022-09-09T11:55:28;22.10;99.90
53294;DHT22;39181;53.440;5.644;2022-09-09T11:58:06;21.80;99.90
53294;DHT22;39181;53.440;5.644;2022-09-09T12:00:45;21.60;99.90
53294;DHT22;39181;53.440;5.644;2022-09-09T12:03:44;21.60;99.90
53294;DHT22;39181;53.440;5.644;2022-09-09T12:06:28;21.70;99.90
53294;DHT22;39181;53.440;5.644;2022-09-09T12:09:13;21.90;99.90
53294;DHT22;39181;53.440;5.644;2022-09-09T12:11:41;21.80;99.90
53294;DHT22;39181;53.440;5.644;2022-09-09T12:14:20;21.80;99.90
53294;DHT22;39181;53.440;5.644;2022-09-09T12:16:46;21.80;99.90
53294;DHT22;39181;53.440;5.644;2022-09-09T12:19:19;21.70;99.90
53294;DHT22;39181;53.440;5.644;2022-09-09T12:21:56;21.70;99.90
53294;DHT22;39181;53.440;5.644;2022-09-09T12:24:41;21.60;99.90
53294;DHT22;39181;53.440;5.644;2022-09-09T12:27:13;21.70;99.90
53294;DHT22;39181;53.440;5.644;2022-09-09T12:30:08;21.80;99.90
53294;DHT22;39181;53.440;5.644;2022-09-09T12:32:35;21.90;99.90
53294;DHT22;39181;53.440;5.644;2022-09-09T12:35:22;22.30;99.90
53294;DHT22;39181;53.440;5.644;2022-09-09T12:37:54;22.50;99.90
53294;DHT22;39181;53.440;5.644;2022-09-09T12:40:33;22.60;99.90
53294;DHT22;39181;53.440;5.644;2022-09-09T12:43:02;22.60;99.90
53294;DHT22;39181;53.440;5.644;2022-09-09T12:45:32;22.50;99.90
53294;DHT22;39181;53.440;5.644;2022-09-09T12:48:03;22.40;99.90
53294;DHT22;39181;53.440;5.644;2022-09-09T12:50:57;22.30;99.90
53294;DHT22;39181;53.440;5.644;2022-09-09T12:56:03;22.10;99.90
53294;DHT22;39181;53.440;5.644;2022-09-09T12:58:30;21.90;99.90
53294;DHT22;39181;53.440;5.644;2022-09-09T13:01:00;22.00;99.90
53294;DHT22;39181;53.440;5.644;2022-09-09T13:03:26;21.90;99.90
53294;DHT22;39181;53.440;5.644;2022-09-09T13:05:53;21.80;99.90
53294;DHT22;39181;53.440;5.644;2022-09-09T13:08:19;21.80;99.90
53294;DHT22;39181;53.440;5.644;2022-09-09T13:10:57;21.80;99.90
53294;DHT22;39181;53.440;5.644;2022-09-09T13:13:36;21.70;99.90
53294;DHT22;39181;53.440;5.644;2022-09-09T13:16:04;21.70;99.90
53294;DHT22;39181;53.440;5.644;2022-09-09T13:18:34;21.70;99.90
53294;DHT22;39181;53.440;5.644;2022-09-09T13:21:00;21.70;99.90
53294;DHT22;39181;53.440;5.644;2022-09-09T13:23:28;21.70;99.90
53294;DHT22;39181;53.440;5.644;2022-09-09T13:25:59;21.70;99.90
53294;DHT22;39181;53.440;5.644;2022-09-09T13:28:27;21.70;99.90
53294;DHT22;39181;53.440;5.644;2022-09-09T13:30:59;21.80;99.90
53294;DHT22;39181;53.440;5.644;2022-09-09T13:33:31;21.80;99.90
53294;DHT22;39181;53.440;5.644;2022-09-09T13:36:01;21.90;99.90
53294;DHT22;39181;53.440;5.644;2022-09-09T13:38:31;21.90;99.90
53294;DHT22;39181;53.440;5.644;2022-09-09T13:41:02;21.90;99.90
53294;DHT22;39181;53.440;5.644;2022-09-09T13:43:44;21.90;99.90
53294;DHT22;39181;53.440;5.644;2022-09-09T13:46:32;21.90;99.90
53294;DHT22;39181;53.440;5.644;2022-09-09T13:49:01;21.90;99.90
53294;DHT22;39181;53.440;5.644;2022-09-09T13:51:37;21.80;99.90
53294;DHT22;39181;53.440;5.644;2022-09-09T13:54:04;21.90;99.90
53294;DHT22;39181;53.440;5.644;2022-09-09T13:56:33;21.80;99.90
53294;DHT22;39181;53.440;5.644;2022-09-09T13:58:58;21.80;99.90
53294;DHT22;39181;53.440;5.644;2022-09-09T14:01:24;21.70;99.90
53294;DHT22;39181;53.440;5.644;2022-09-09T14:03:49;21.70;99.90
53294;DHT22;39181;53.440;5.644;2022-09-09T14:06:16;21.70;99.90
53294;DHT22;39181;53.440;5.644;2022-09-09T14:08:41;21.70;99.90
53294;DHT22;39181;53.440;5.644;2022-09-09T14:11:11;21.80;99.90
53294;DHT22;39181;53.440;5.644;2022-09-09T14:13:37;21.90;99.90
53294;DHT22;39181;53.440;5.644;2022-09-09T14:16:03;21.90;99.90
53294;DHT22;39181;53.440;5.644;2022-09-09T14:18:28;21.90;99.90
53294;DHT22;39181;53.440;5.644;2022-09-09T14:20:54;22.00;99.90
53294;DHT22;39181;53.440;5.644;2022-09-09T14:23:20;21.80;99.90
53294;DHT22;39181;53.440;5.644;2022-09-09T14:25:47;21.80;99.90
53294;DHT22;39181;53.440;5.644;2022-09-09T14:28:13;21.80;99.90
53294;DHT22;39181;53.440;5.644;2022-09-09T14:30:40;21.70;99.90
53294;DHT22;39181;53.440;5.644;2022-09-09T14:33:07;21.50;99.90
53294;DHT22;39181;53.440;5.644;2022-09-09T14:35:33;21.40;99.90
53294;DHT22;39181;53.440;5.644;2022-09-09T14:37:59;21.60;99.90
53294;DHT22;39181;53.440;5.644;2022-09-09T14:40:26;21.60;99.90
53294;DHT22;39181;53.440;5.644;2022-09-09T14:42:53;21.70;99.90
53294;DHT22;39181;53.440;5.644;2022-09-09T14:45:18;21.70;99.90
53294;DHT22;39181;53.440;5.644;2022-09-09T14:47:44;21.70;99.90
53294;DHT22;39181;53.440;5.644;2022-09-09T14:50:10;21.70;99.90
53294;DHT22;39181;53.440;5.644;2022-09-09T14:52:37;21.60;99.90
53294;DHT22;39181;53.440;5.644;2022-09-09T14:55:04;21.60;99.90
53294;DHT22;39181;53.440;5.644;2022-09-09T14:57:29;21.80;99.90
53294;DHT22;39181;53.440;5.644;2022-09-09T14:59:55;21.70;99.90
53294;DHT22;39181;53.440;5.644;2022-09-09T15:02:22;21.70;99.90
53294;DHT22;39181;53.440;5.644;2022-09-09T15:04:48;21.50;99.90
53294;DHT22;39181;53.440;5.644;2022-09-09T15:07:15;21.40;99.90
53294;DHT22;39181;53.440;5.644;2022-09-09T15:09:41;21.20;99.90
53294;DHT22;39181;53.440;5.644;2022-09-09T15:12:07;21.10;99.90
53294;DHT22;39181;53.440;5.644;2022-09-09T15:14:33;21.00;99.90
53294;DHT22;39181;53.440;5.644;2022-09-09T15:16:59;21.00;99.90
53294;DHT22;39181;53.440;5.644;2022-09-09T15:19:25;21.10;99.90
53294;DHT22;39181;53.440;5.644;2022-09-09T15:21:50;21.00;99.90
53294;DHT22;39181;53.440;5.644;2022-09-09T15:24:16;21.00;99.90
53294;DHT22;39181;53.440;5.644;2022-09-09T15:26:42;20.90;99.90
53294;DHT22;39181;53.440;5.644;2022-09-09T15:29:08;20.80;99.90
53294;DHT22;39181;53.440;5.644;2022-09-09T15:31:34;20.80;99.90
53294;DHT22;39181;53.440;5.644;2022-09-09T15:34:02;20.70;99.90
53294;DHT22;39181;53.440;5.644;2022-09-09T15:38:55;20.40;99.90
53294;DHT22;39181;53.440;5.644;2022-09-09T15:41:22;20.20;99.90
53294;DHT22;39181;53.440;5.644;2022-09-09T15:43:50;19.90;99.90
53294;DHT22;39181;53.440;5.644;2022-09-09T15:48:49;19.20;99.90
53294;DHT22;39181;53.440;5.644;2022-09-09T15:51:16;19.10;99.90
53294;DHT22;39181;53.440;5.644;2022-09-09T15:53:42;18.90;99.90
53294;DHT22;39181;53.440;5.644;2022-09-09T15:56:09;18.80;99.90
53294;DHT22;39181;53.440;5.644;2022-09-09T15:58:35;18.70;99.90
53294;DHT22;39181;53.440;5.644;2022-09-09T16:01:08;18.70;99.90
53294;DHT22;39181;53.440;5.644;2022-09-09T16:03:39;18.70;99.90
53294;DHT22;39181;53.440;5.644;2022-09-09T16:06:06;18.70;99.90
53294;DHT22;39181;53.440;5.644;2022-09-09T16:08:38;18.70;99.90
53294;DHT22;39181;53.440;5.644;2022-09-09T16:11:08;18.80;99.90
53294;DHT22;39181;53.440;5.644;2022-09-09T16:13:35;18.90;99.90
53294;DHT22;39181;53.440;5.644;2022-09-09T16:16:02;19.00;99.90
53294;DHT22;39181;53.440;5.644;2022-09-09T16:18:53;19.10;99.90
53294;DHT22;39181;53.440;5.644;2022-09-09T16:21:25;19.10;99.90
53294;DHT22;39181;53.440;5.644;2022-09-09T16:23:51;19.30;99.90
53294;DHT22;39181;53.440;5.644;2022-09-09T16:26:19;19.30;99.90
53294;DHT22;39181;53.440;5.644;2022-09-09T16:28:45;19.40;99.90
53294;DHT22;39181;53.440;5.644;2022-09-09T16:31:20;19.40;99.90
53294;DHT22;39181;53.440;5.644;2022-09-09T16:33:46;19.40;99.90
53294;DHT22;39181;53.440;5.644;2022-09-09T16:36:24;19.40;99.90
53294;DHT22;39181;53.440;5.644;2022-09-09T16:38:58;19.30;99.90
53294;DHT22;39181;53.440;5.644;2022-09-09T16:41:25;19.30;99.90
53294;DHT22;39181;53.440;5.644;2022-09-09T16:43:57;19.30;99.90
53294;DHT22;39181;53.440;5.644;2022-09-09T16:46:23;19.20;99.90
53294;DHT22;39181;53.440;5.644;2022-09-09T16:48:50;19.20;99.90
53294;DHT22;39181;53.440;5.644;2022-09-09T16:51:24;19.10;99.90
53294;DHT22;39181;53.440;5.644;2022-09-09T16:53:51;19.10;99.90
53294;DHT22;39181;53.440;5.644;2022-09-09T16:56:19;19.00;99.90
53294;DHT22;39181;53.440;5.644;2022-09-09T16:58:50;18.90;99.90
53294;DHT22;39181;53.440;5.644;2022-09-09T17:01:15;18.80;99.90
53294;DHT22;39181;53.440;5.644;2022-09-09T17:03:41;18.70;99.90
53294;DHT22;39181;53.440;5.644;2022-09-09T17:06:14;18.60;99.90
53294;DHT22;39181;53.440;5.644;2022-09-09T17:08:40;18.50;99.90
53294;DHT22;39181;53.440;5.644;2022-09-09T17:11:14;18.40;99.90
53294;DHT22;39181;53.440;5.644;2022-09-09T17:13:43;18.40;99.90
53294;DHT22;39181;53.440;5.644;2022-09-09T17:16:10;18.30;99.90
53294;DHT22;39181;53.440;5.644;2022-09-09T17:18:36;18.20;99.90
53294;DHT22;39181;53.440;5.644;2022-09-09T17:21:07;18.20;99.90
53294;DHT22;39181;53.440;5.644;2022-09-09T17:23:34;18.10;99.90
53294;DHT22;39181;53.440;5.644;2022-09-09T17:26:06;18.10;99.90
53294;DHT22;39181;53.440;5.644;2022-09-09T17:28:36;18.00;99.90
53294;DHT22;39181;53.440;5.644;2022-09-09T17:31:02;17.90;99.90
53294;DHT22;39181;53.440;5.644;2022-09-09T17:33:30;17.80;99.90
53294;DHT22;39181;53.440;5.644;2022-09-09T17:36:23;17.60;99.90
53294;DHT22;39181;53.440;5.644;2022-09-09T17:38:51;17.50;99.90
53294;DHT22;39181;53.440;5.644;2022-09-09T17:41:23;17.50;99.90